createdAt,value
2023-02-22T00:01:35.059Z,37.70
2023-02-22T00:04:03.717Z,38.23
2023-02-22T00:06:32.045Z,39.77
2023-02-22T00:09:02.654Z,37.87
2023-02-22T00:11:32.139Z,41.87
2023-02-22T00:14:00.173Z,46.60
2023-02-22T00:16:28.553Z,36.17
2023-02-22T00:18:56.562Z,35.10
2023-02-22T00:21:24.516Z,37.33
2023-02-22T00:23:54.644Z,53.97
2023-02-22T00:26:24.321Z,46.67
2023-02-22T00:28:54.535Z,51.27
2023-02-22T00:31:23.369Z,33.60
2023-02-22T00:33:51.733Z,45.97
2023-02-22T00:36:19.954Z,43.60
2023-02-22T00:38:47.958Z,51.63
2023-02-22T00:41:16.562Z,48.93
2023-02-22T00:43:46.050Z,42.20
2023-02-22T00:46:15.110Z,46.80
2023-02-22T00:48:43.157Z,48.97
2023-02-22T00:51:11.917Z,43.37
2023-02-22T00:53:39.897Z,35.60
2023-02-22T00:56:08.440Z,39.07
2023-02-22T00:58:36.385Z,54.67
2023-02-22T01:01:06.064Z,32.63
2023-02-22T01:03:35.247Z,41.10
2023-02-22T01:06:03.404Z,34.97
2023-02-22T01:08:32.722Z,37.80
2023-02-22T01:11:00.885Z,105.70
2023-02-22T01:13:28.985Z,51.97
2023-02-22T01:15:57.943Z,25.93
2023-02-22T01:18:27.662Z,31.87
2023-02-22T01:20:55.848Z,26.90
2023-02-22T01:23:23.847Z,33.63
2023-02-22T01:25:51.854Z,30.83
2023-02-22T01:28:19.952Z,35.57
2023-02-22T01:30:51.485Z,26.63
2023-02-22T01:33:19.571Z,30.40
2023-02-22T01:35:50.849Z,29.40
2023-02-22T01:38:18.860Z,18.00
2023-02-22T01:40:50.449Z,29.13
2023-02-22T01:43:22.460Z,24.17
2023-02-22T01:45:56.783Z,27.73
2023-02-22T01:48:31.723Z,26.97
2023-02-22T01:51:04.211Z,47.70
2023-02-22T01:53:38.430Z,27.57
2023-02-22T01:56:08.299Z,35.40
2023-02-22T01:58:39.142Z,29.83
2023-02-22T02:01:08.312Z,28.37
2023-02-22T02:03:39.601Z,32.47
2023-02-22T02:06:11.855Z,22.97
2023-02-22T02:08:51.513Z,36.83
2023-02-22T02:11:21.901Z,35.83
2023-02-22T02:13:52.490Z,31.67
2023-02-22T02:16:22.879Z,36.23
2023-02-22T02:18:51.224Z,28.17
2023-02-22T02:21:47.552Z,36.40
2023-02-22T02:25:10.770Z,28.93
2023-02-22T02:28:02.579Z,24.13
2023-02-22T02:30:58.637Z,33.50
2023-02-22T02:33:33.767Z,34.30
2023-02-22T02:36:05.177Z,27.70
2023-02-22T02:38:36.273Z,44.90
2023-02-22T02:41:10.669Z,40.20
2023-02-22T02:43:43.585Z,31.10
2023-02-22T02:46:15.988Z,25.33
2023-02-22T02:48:50.416Z,23.03
2023-02-22T02:51:19.799Z,32.20
2023-02-22T02:53:51.245Z,17.33
2023-02-22T02:56:19.353Z,29.47
2023-02-22T02:58:51.233Z,34.93
2023-02-22T03:01:37.183Z,26.47
2023-02-22T03:04:33.209Z,41.80
2023-02-22T03:07:26.861Z,27.03
2023-02-22T03:10:04.882Z,26.23
2023-02-22T03:12:43.860Z,23.67
2023-02-22T03:15:23.419Z,42.43
2023-02-22T03:17:55.796Z,21.57
2023-02-22T03:20:34.289Z,34.00
2023-02-22T03:23:09.692Z,19.03
2023-02-22T03:25:44.713Z,19.23
2023-02-22T03:28:15.652Z,11.93
2023-02-22T03:30:49.230Z,16.53
2023-02-22T03:33:23.907Z,16.93
2023-02-22T03:35:57.835Z,15.10
2023-02-22T03:38:29.016Z,20.17
2023-02-22T03:41:01.901Z,16.37
2023-02-22T03:43:35.702Z,15.87
2023-02-22T03:46:07.745Z,13.57
2023-02-22T03:48:43.994Z,13.57
2023-02-22T03:51:16.997Z,13.70
2023-02-22T03:53:47.969Z,19.87
2023-02-22T03:56:21.137Z,15.93
2023-02-22T03:58:50.273Z,15.40
2023-02-22T04:01:19.896Z,9.90
2023-02-22T04:03:48.237Z,23.40
2023-02-22T04:06:18.765Z,13.43
2023-02-22T04:08:47.268Z,11.43
2023-02-22T04:11:15.622Z,18.33
2023-02-22T04:13:43.822Z,17.37
2023-02-22T04:16:11.966Z,9.80
2023-02-22T04:18:40.567Z,15.80
2023-02-22T04:21:09.261Z,12.73
2023-02-22T04:23:43.491Z,18.47
2023-02-22T04:26:12.311Z,16.17
2023-02-22T04:28:40.579Z,15.90
2023-02-22T04:31:15.573Z,13.97
2023-02-22T04:33:44.814Z,27.20
2023-02-22T04:36:16.559Z,18.73
2023-02-22T04:38:47.308Z,10.87
2023-02-22T04:41:16.029Z,13.77
2023-02-22T04:43:44.278Z,14.40
2023-02-22T04:46:38.585Z,11.90
2023-02-22T04:49:06.742Z,23.23
2023-02-22T04:51:37.622Z,22.67
2023-02-22T04:54:12.861Z,17.37
2023-02-22T04:56:45.083Z,15.10
2023-02-22T04:59:13.590Z,17.87
2023-02-22T05:01:45.661Z,21.10
2023-02-22T05:04:13.950Z,21.33
2023-02-22T05:06:42.247Z,17.53
2023-02-22T05:09:11.892Z,25.30
2023-02-22T05:11:40.015Z,21.10
2023-02-22T05:14:08.030Z,18.97
2023-02-22T05:16:36.329Z,18.57
2023-02-22T05:19:04.384Z,14.60
2023-02-22T05:21:33.331Z,23.90
2023-02-22T05:24:01.424Z,20.13
2023-02-22T05:26:30.821Z,13.60
2023-02-22T05:28:58.880Z,15.10
2023-02-22T05:31:27.157Z,14.97
2023-02-22T05:33:55.317Z,31.90
2023-02-22T05:36:23.304Z,25.20
2023-02-22T05:38:51.371Z,23.57
2023-02-22T05:41:19.435Z,26.67
2023-02-22T05:43:48.948Z,22.20
2023-02-22T05:46:17.628Z,18.93
2023-02-22T05:48:45.619Z,11.53
2023-02-22T05:51:13.635Z,16.47
2023-02-22T05:53:42.527Z,15.23
2023-02-22T05:56:10.533Z,21.23
2023-02-22T05:58:38.502Z,20.37
2023-02-22T06:01:08.045Z,15.47
2023-02-22T06:03:38.738Z,15.13
2023-02-22T06:06:07.116Z,12.77
2023-02-22T06:08:35.116Z,25.47
2023-02-22T06:11:03.383Z,10.07
2023-02-22T06:13:31.360Z,19.33
2023-02-22T06:15:59.470Z,12.70
2023-02-22T06:18:30.940Z,23.50
2023-02-22T06:20:59.206Z,21.83
2023-02-22T06:23:27.804Z,27.03
2023-02-22T06:26:19.240Z,22.90
2023-02-22T06:28:48.359Z,20.03
2023-02-22T06:31:16.900Z,19.10
2023-02-22T06:33:46.477Z,15.30
2023-02-22T06:36:17.980Z,19.07
2023-02-22T06:38:46.356Z,17.90
2023-02-22T06:41:16.806Z,19.30
2023-02-22T06:43:44.995Z,23.00
2023-02-22T06:46:13.716Z,14.60
2023-02-22T06:48:48.225Z,25.50
2023-02-22T06:51:16.525Z,17.67
2023-02-22T06:53:44.876Z,14.43
2023-02-22T06:56:13.158Z,16.10
2023-02-22T06:58:41.204Z,24.43
2023-02-22T07:01:09.327Z,16.43
2023-02-22T07:03:37.900Z,17.13
2023-02-22T07:06:09.165Z,15.87
2023-02-22T07:08:37.486Z,14.80
2023-02-22T07:11:06.158Z,19.07
2023-02-22T07:13:34.294Z,21.10
2023-02-22T07:16:02.731Z,12.10
2023-02-22T07:18:31.099Z,16.20
2023-02-22T07:21:00.113Z,18.87
2023-02-22T07:23:29.569Z,17.43
2023-02-22T07:26:00.501Z,19.63
2023-02-22T07:28:28.719Z,24.73
2023-02-22T07:30:56.818Z,19.83
2023-02-22T07:33:26.830Z,12.00
2023-02-22T07:35:54.976Z,14.70
2023-02-22T07:38:23.026Z,22.03
2023-02-22T07:40:52.481Z,23.20
2023-02-22T07:43:22.693Z,21.40
2023-02-22T07:45:53.157Z,19.20
2023-02-22T07:48:22.829Z,15.20
2023-02-22T07:50:54.069Z,21.93
2023-02-22T07:56:06.347Z,17.57
2023-02-22T07:58:35.492Z,18.43
2023-02-22T08:01:03.847Z,17.53
2023-02-22T08:03:36.870Z,25.23
2023-02-22T08:06:07.867Z,24.00
2023-02-22T08:08:35.983Z,15.60
2023-02-22T08:11:06.076Z,26.53
2023-02-22T08:13:34.303Z,20.83
2023-02-22T08:16:03.486Z,29.07
2023-02-22T08:18:31.798Z,21.77
2023-02-22T08:20:59.958Z,20.13
2023-02-22T08:23:28.015Z,33.30
2023-02-22T08:25:57.108Z,24.10
2023-02-22T08:28:26.838Z,36.73
2023-02-22T08:30:55.017Z,15.90
2023-02-22T08:33:23.338Z,25.73
2023-02-22T08:35:51.806Z,23.73
2023-02-22T08:38:22.610Z,25.83
2023-02-22T08:40:51.103Z,30.87
2023-02-22T08:43:20.284Z,27.60
2023-02-22T08:45:51.542Z,34.83
2023-02-22T08:48:20.226Z,30.07
2023-02-22T08:50:48.334Z,33.63
2023-02-22T08:53:17.535Z,32.17
2023-02-22T08:55:45.704Z,30.13
2023-02-22T08:58:14.056Z,35.00
2023-02-22T09:00:44.578Z,42.07
2023-02-22T09:03:15.633Z,23.57
2023-02-22T09:05:44.919Z,25.53
2023-02-22T09:08:13.451Z,30.23
2023-02-22T09:10:41.721Z,22.87
2023-02-22T09:13:09.908Z,27.40
2023-02-22T09:15:39.626Z,30.47
2023-02-22T09:18:09.415Z,19.00
2023-02-22T09:20:38.881Z,29.00
2023-02-22T09:23:09.653Z,24.67
2023-02-22T09:25:38.765Z,27.70
2023-02-22T09:28:07.378Z,28.63
2023-02-22T09:30:36.968Z,21.47
2023-02-22T09:33:09.859Z,20.27
2023-02-22T09:35:42.394Z,26.50
2023-02-22T09:38:11.449Z,21.60
2023-02-22T09:40:45.102Z,22.93
2023-02-22T09:43:27.844Z,21.30
2023-02-22T09:46:13.452Z,20.33
2023-02-22T09:48:52.724Z,26.73
2023-02-22T09:51:27.387Z,27.80
2023-02-22T09:54:00.806Z,21.40
2023-02-22T09:56:30.961Z,19.83
2023-02-22T09:59:04.667Z,20.60
2023-02-22T10:01:36.572Z,14.20
2023-02-22T10:04:12.386Z,17.20
2023-02-22T10:06:45.587Z,24.90
2023-02-22T10:09:15.607Z,16.20
2023-02-22T10:11:53.454Z,15.70
2023-02-22T10:14:46.803Z,12.43
2023-02-22T10:17:27.330Z,10.77
2023-02-22T10:20:19.271Z,12.60
2023-02-22T10:23:02.065Z,8.20
2023-02-22T10:25:35.662Z,8.67
2023-02-22T10:28:07.659Z,12.20
2023-02-22T10:30:41.805Z,10.57
2023-02-22T10:33:15.546Z,14.70
2023-02-22T10:35:47.166Z,11.27
2023-02-22T10:38:23.346Z,8.00
2023-02-22T10:40:57.770Z,13.30
2023-02-22T10:43:26.202Z,8.97
2023-02-22T10:46:17.954Z,12.90
2023-02-22T10:48:51.835Z,9.67
2023-02-22T10:51:20.288Z,12.00
2023-02-22T10:53:59.407Z,11.47
2023-02-22T10:56:28.595Z,8.97
2023-02-22T10:58:59.566Z,8.23
2023-02-22T11:01:38.137Z,6.70
2023-02-22T11:04:14.186Z,8.87
2023-02-22T11:06:44.380Z,11.80
2023-02-22T11:09:15.573Z,8.77
2023-02-22T11:11:45.826Z,8.97
2023-02-22T11:14:25.303Z,8.93
2023-02-22T11:16:55.017Z,6.90
2023-02-22T11:19:25.959Z,14.33
2023-02-22T11:21:57.151Z,11.50
2023-02-22T11:24:37.249Z,13.50
2023-02-22T11:27:08.890Z,10.10
2023-02-22T11:29:38.767Z,7.30
2023-02-22T11:32:15.897Z,6.53
2023-02-22T11:34:44.241Z,8.30
2023-02-22T11:37:30.340Z,7.10
2023-02-22T11:40:18.268Z,8.70
2023-02-22T11:42:46.624Z,9.70
2023-02-22T11:45:17.214Z,6.97
2023-02-22T11:47:52.431Z,8.67
2023-02-22T11:50:29.185Z,7.33
2023-02-22T11:53:11.976Z,6.40
2023-02-22T11:55:48.679Z,9.60
2023-02-22T11:58:31.001Z,9.30
2023-02-22T12:01:07.211Z,12.50
2023-02-22T12:03:58.374Z,10.13
2023-02-22T12:06:40.404Z,7.60
2023-02-22T12:09:14.793Z,10.27
2023-02-22T12:11:54.907Z,14.47
2023-02-22T12:14:31.714Z,7.20
2023-02-22T12:17:23.434Z,11.77
2023-02-22T12:19:54.418Z,6.33
2023-02-22T12:22:26.711Z,9.90
2023-02-22T12:25:09.106Z,7.33
2023-02-22T12:27:44.783Z,13.73
2023-02-22T12:30:19.990Z,8.97
2023-02-22T12:32:54.283Z,10.83
2023-02-22T12:35:25.003Z,5.13
2023-02-22T12:38:01.696Z,7.97
2023-02-22T12:40:36.802Z,9.90
2023-02-22T12:43:16.628Z,11.57
2023-02-22T12:45:49.143Z,6.50
2023-02-22T12:48:32.461Z,7.83
2023-02-22T12:51:08.305Z,9.00
2023-02-22T12:53:38.327Z,8.17
2023-02-22T12:56:20.559Z,11.77
2023-02-22T12:58:58.733Z,5.57
2023-02-22T13:01:33.885Z,6.43
2023-02-22T13:04:19.394Z,6.87
2023-02-22T13:07:11.060Z,5.90
2023-02-22T13:09:53.221Z,5.17
2023-02-22T13:12:27.715Z,6.77
2023-02-22T13:15:09.252Z,6.73
2023-02-22T13:17:44.012Z,7.13
2023-02-22T13:20:19.396Z,6.00
2023-02-22T13:22:53.401Z,6.07
2023-02-22T13:25:27.374Z,4.33
2023-02-22T13:28:00.310Z,4.67
2023-02-22T13:30:37.685Z,6.77
2023-02-22T13:33:27.212Z,6.13
2023-02-22T13:36:09.851Z,7.20
2023-02-22T13:39:28.318Z,7.93
2023-02-22T13:42:35.931Z,5.40
2023-02-22T13:45:36.015Z,5.63
2023-02-22T13:48:27.936Z,4.80
2023-02-22T13:51:11.951Z,7.47
2023-02-22T13:53:48.103Z,6.80
2023-02-22T13:56:17.814Z,9.90
2023-02-22T13:58:52.893Z,6.67
2023-02-22T14:01:41.946Z,7.87
2023-02-22T14:04:34.815Z,5.80
2023-02-22T14:07:04.321Z,5.90
2023-02-22T14:09:48.202Z,6.43
2023-02-22T14:12:49.726Z,9.53
2023-02-22T14:15:29.802Z,7.87
2023-02-22T14:18:01.995Z,6.67
2023-02-22T14:20:35.142Z,6.17
2023-02-22T14:23:29.706Z,4.97
2023-02-22T14:26:09.995Z,5.73
2023-02-22T14:28:42.365Z,7.30
2023-02-22T14:31:25.552Z,10.00
2023-02-22T14:34:07.486Z,7.57
2023-02-22T14:36:42.094Z,9.90
2023-02-22T14:39:23.294Z,9.97
2023-02-22T14:41:58.324Z,9.70
2023-02-22T14:44:42.764Z,6.70
2023-02-22T14:47:20.075Z,6.13
2023-02-22T14:49:54.758Z,7.90
2023-02-22T14:52:25.831Z,11.73
2023-02-22T14:55:04.396Z,8.83
2023-02-22T14:57:42.897Z,7.77
2023-02-22T15:00:20.104Z,7.30
2023-02-22T15:02:49.302Z,6.20
2023-02-22T15:05:20.835Z,8.40
2023-02-22T15:07:54.317Z,7.77
2023-02-22T15:10:27.038Z,7.93
2023-02-22T15:13:08.844Z,6.73
2023-02-22T15:15:40.625Z,9.17
2023-02-22T15:18:19.015Z,8.00
2023-02-22T15:20:55.863Z,10.53
2023-02-22T15:23:29.638Z,10.70
2023-02-22T15:25:58.457Z,8.07
2023-02-22T15:28:31.100Z,10.10
2023-02-22T15:31:29.732Z,12.57
2023-02-22T15:34:00.134Z,9.53
2023-02-22T15:36:32.812Z,8.93
2023-02-22T15:39:08.222Z,7.97
2023-02-22T15:41:38.581Z,11.70
2023-02-22T15:44:22.816Z,9.97
2023-02-22T15:46:54.334Z,9.70
2023-02-22T15:49:24.465Z,9.03
2023-02-22T15:52:19.667Z,8.07
2023-02-22T15:54:50.559Z,10.47
2023-02-22T15:57:21.364Z,10.53
2023-02-22T15:59:53.033Z,11.73
2023-02-22T16:02:31.226Z,9.47
2023-02-22T16:05:02.861Z,9.00
2023-02-22T16:07:32.355Z,10.80
2023-02-22T16:10:10.196Z,16.70
2023-02-22T16:12:38.163Z,9.43
2023-02-22T16:15:17.513Z,8.37
2023-02-22T16:18:01.062Z,10.57
2023-02-22T16:20:33.527Z,10.60
2023-02-22T16:23:23.637Z,7.70
2023-02-22T16:26:04.169Z,10.57
2023-02-22T16:28:35.408Z,7.53
2023-02-22T16:31:03.923Z,7.70
2023-02-22T16:33:33.705Z,9.80
2023-02-22T16:36:08.048Z,7.70
2023-02-22T16:38:39.072Z,9.10
2023-02-22T16:41:08.443Z,12.63
2023-02-22T16:43:37.207Z,9.60
2023-02-22T16:46:06.829Z,9.10
2023-02-22T16:48:38.174Z,11.47
2023-02-22T16:51:17.266Z,8.60
2023-02-22T16:53:48.719Z,10.53
2023-02-22T16:56:20.148Z,10.30
2023-02-22T16:58:50.958Z,14.77
2023-02-22T17:01:19.469Z,9.07
2023-02-22T17:03:47.887Z,8.70
2023-02-22T17:06:16.175Z,12.73
2023-02-22T17:08:45.063Z,13.53
2023-02-22T17:11:15.802Z,10.83
2023-02-22T17:13:45.643Z,11.53
2023-02-22T17:16:16.072Z,10.43
2023-02-22T17:18:45.907Z,10.67
2023-02-22T17:21:13.997Z,10.60
2023-02-22T17:23:44.311Z,11.57
2023-02-22T17:26:13.603Z,10.97
2023-02-22T17:28:44.154Z,10.57
2023-02-22T17:31:20.216Z,16.40
2023-02-22T17:33:48.324Z,10.70
2023-02-22T17:36:16.843Z,16.77
2023-02-22T17:38:44.986Z,12.50
2023-02-22T17:41:12.971Z,16.47
2023-02-22T17:43:42.301Z,11.77
2023-02-22T17:46:10.702Z,11.00
2023-02-22T17:48:39.628Z,13.13
2023-02-22T17:51:09.239Z,10.90
2023-02-22T17:53:37.577Z,13.23
2023-02-22T17:56:09.144Z,9.93
2023-02-22T17:58:38.190Z,15.20
2023-02-22T18:01:07.906Z,13.97
2023-02-22T18:03:39.408Z,15.87
2023-02-22T18:06:08.492Z,12.63
2023-02-22T18:08:38.966Z,14.00
2023-02-22T18:11:06.931Z,12.70
2023-02-22T18:13:35.005Z,13.50
2023-02-22T18:16:05.538Z,12.63
2023-02-22T18:18:35.216Z,12.60
2023-02-22T18:21:03.811Z,9.80
2023-02-22T18:23:33.773Z,16.63
2023-02-22T18:30:22.186Z,11.73
2023-02-22T18:32:50.911Z,17.53
2023-02-22T18:35:20.837Z,14.07
2023-02-22T18:37:49.111Z,17.63
2023-02-22T18:40:18.941Z,11.67
2023-02-22T18:42:47.922Z,14.30
2023-02-22T18:45:17.135Z,13.13
2023-02-22T18:47:45.590Z,16.27
2023-02-22T18:50:17.159Z,14.27
2023-02-22T18:52:46.807Z,17.00
2023-02-22T18:55:15.889Z,21.80
2023-02-22T18:57:44.263Z,17.33
2023-02-22T19:00:14.719Z,19.03
2023-02-22T19:02:44.148Z,17.37
2023-02-22T19:05:13.066Z,20.70
2023-02-22T19:07:41.678Z,20.57
2023-02-22T19:10:22.475Z,14.07
2023-02-22T19:12:51.542Z,21.07
2023-02-22T19:15:20.895Z,21.43
2023-02-22T19:17:49.124Z,14.73
2023-02-22T19:20:17.296Z,14.30
2023-02-22T19:22:45.620Z,21.00
2023-02-22T19:28:53.505Z,24.00
2023-02-22T19:31:26.414Z,19.63
2023-02-22T19:33:54.878Z,19.17
2023-02-22T19:36:24.306Z,27.43
2023-02-22T19:38:52.534Z,18.30
2023-02-22T19:41:23.954Z,21.30
2023-02-22T19:43:54.344Z,16.90
2023-02-22T19:46:24.898Z,20.50
2023-02-22T19:48:53.594Z,17.83
2023-02-22T19:51:25.096Z,26.87
2023-02-22T19:53:54.340Z,39.47
2023-02-22T19:56:27.391Z,27.57
2023-02-22T19:58:57.058Z,30.40
2023-02-22T20:01:26.808Z,21.97
2023-02-22T20:03:59.703Z,21.63
2023-02-22T20:06:34.634Z,21.63
2023-02-22T20:09:03.618Z,17.10
2023-02-22T20:11:34.075Z,31.00
2023-02-22T20:14:02.605Z,24.90
2023-02-22T20:16:30.996Z,29.83
2023-02-22T20:18:59.355Z,24.87
2023-02-22T20:21:30.807Z,20.80
2023-02-22T20:23:59.488Z,18.77
2023-02-22T20:26:29.022Z,21.03
2023-02-22T20:29:04.068Z,25.33
2023-02-22T20:31:32.853Z,22.93
2023-02-22T20:34:02.263Z,18.23
2023-02-22T20:36:31.938Z,23.63
2023-02-22T20:39:00.790Z,18.60
2023-02-22T20:41:30.659Z,17.93
2023-02-22T20:44:01.922Z,21.40
2023-02-22T20:46:31.823Z,21.23
2023-02-22T20:49:01.800Z,22.90
2023-02-22T20:51:30.695Z,18.10
2023-02-22T20:53:59.979Z,22.73
2023-02-22T20:56:30.440Z,23.53
2023-02-22T20:59:01.457Z,22.13
2023-02-22T21:01:30.456Z,24.00
2023-02-22T21:04:01.695Z,29.10
2023-02-22T21:06:31.051Z,19.60
2023-02-22T21:09:02.584Z,21.83
2023-02-22T21:11:32.137Z,21.73
2023-02-22T21:14:02.823Z,19.60
2023-02-22T21:16:32.847Z,21.50
2023-02-22T21:19:02.543Z,20.50
2023-02-22T21:21:31.969Z,21.77
2023-02-22T21:24:02.053Z,23.90
2023-02-22T21:26:31.483Z,20.30
2023-02-22T21:29:03.323Z,22.23
2023-02-22T21:31:32.511Z,24.70
2023-02-22T21:34:01.357Z,22.03
2023-02-22T21:36:30.046Z,16.97
2023-02-22T21:38:59.962Z,21.20
2023-02-22T21:41:29.966Z,21.50
2023-02-22T21:43:59.836Z,23.53
2023-02-22T21:46:30.209Z,25.50
2023-02-22T21:48:59.514Z,19.10
2023-02-22T21:51:31.883Z,24.10
2023-02-22T21:54:02.185Z,23.20
2023-02-22T21:56:32.361Z,25.20
2023-02-22T21:59:02.883Z,21.53
2023-02-22T22:01:35.145Z,18.27
2023-02-22T22:04:05.637Z,19.47
2023-02-22T22:06:35.771Z,21.90
2023-02-22T22:09:18.013Z,23.70
2023-02-22T22:11:50.673Z,22.73
2023-02-22T22:14:19.767Z,23.93
2023-02-22T22:16:51.915Z,25.13
2023-02-22T22:19:20.334Z,18.07
2023-02-22T22:21:49.963Z,17.80
2023-02-22T22:24:20.631Z,23.53
2023-02-22T22:26:51.045Z,24.23
2023-02-22T22:29:20.079Z,20.67
2023-02-22T22:31:49.582Z,18.60
2023-02-22T22:34:17.818Z,18.00
2023-02-22T22:36:46.094Z,22.47
2023-02-22T22:39:14.176Z,25.40
2023-02-22T22:41:44.088Z,19.43
2023-02-22T22:44:15.489Z,25.00
2023-02-22T22:46:49.064Z,24.10
2023-02-22T22:49:20.454Z,28.60
2023-02-22T22:51:48.873Z,24.83
2023-02-22T22:54:17.023Z,24.30
2023-02-22T22:56:46.494Z,23.97
2023-02-22T22:59:15.289Z,20.57
2023-02-22T23:01:45.234Z,18.40
2023-02-22T23:04:16.230Z,21.77
2023-02-22T23:06:47.288Z,22.40
2023-02-22T23:09:19.689Z,18.63
2023-02-22T23:11:50.653Z,20.10
2023-02-22T23:14:20.525Z,22.73
2023-02-22T23:16:49.284Z,21.27
2023-02-22T23:19:19.198Z,18.30
2023-02-22T23:21:51.049Z,22.10
2023-02-22T23:24:21.154Z,26.17
2023-02-22T23:26:49.870Z,26.70
2023-02-22T23:29:19.096Z,23.87
2023-02-22T23:31:48.720Z,25.40
2023-02-22T23:34:18.444Z,18.43
2023-02-22T23:36:48.501Z,20.33
2023-02-22T23:39:18.291Z,30.63
2023-02-22T23:41:48.695Z,25.60
2023-02-22T23:44:17.905Z,22.50
2023-02-22T23:46:48.027Z,22.50
2023-02-22T23:49:20.365Z,21.70
2023-02-22T23:51:50.469Z,21.37
2023-02-22T23:54:20.997Z,21.47
2023-02-22T23:56:56.504Z,23.10
2023-02-22T23:59:26.190Z,21.20
